createdAt,value
2018-06-20T00:00:49.972Z,15.3
2018-06-20T00:01:40.008Z,15.3
2018-06-20T00:02:30.089Z,15.3
2018-06-20T00:03:20.139Z,15.3
2018-06-20T00:04:10.200Z,15.3
2018-06-20T00:05:00.266Z,15.3
2018-06-20T00:05:50.342Z,15.2
2018-06-20T00:06:40.433Z,15.2
2018-06-20T00:07:30.493Z,15.2
2018-06-20T00:08:19.955Z,15.2
2018-06-20T00:09:10.597Z,15.2
2018-06-20T00:10:00.652Z,15.2
2018-06-20T00:10:50.732Z,15.1
2018-06-20T00:11:40.798Z,15.1
2018-06-20T00:12:30.848Z,15.1
2018-06-20T00:13:20.920Z,15.1
2018-06-20T00:14:10.690Z,15.1
2018-06-20T00:15:00.821Z,15.1
2018-06-20T00:15:51.097Z,15.1
2018-06-20T00:16:40.916Z,15.1
2018-06-20T00:17:30.962Z,15.1
2018-06-20T00:18:21.299Z,15.1
2018-06-20T00:19:11.357Z,15.1
2018-06-20T00:20:01.429Z,15.1
2018-06-20T00:20:51.483Z,15.1
2018-06-20T00:21:41.322Z,15.1
2018-06-20T00:22:31.324Z,15
2018-06-20T00:23:21.673Z,15
2018-06-20T00:24:11.734Z,15
2018-06-20T00:25:01.834Z,15
2018-06-20T00:25:51.888Z,14.9
2018-06-20T00:26:41.929Z,14.9
2018-06-20T00:27:31.994Z,14.9
2018-06-20T00:28:21.220Z,14.9
2018-06-20T00:29:12.134Z,14.9
2018-06-20T00:30:02.180Z,14.9
2018-06-20T00:30:52.259Z,14.9
2018-06-20T00:31:42.029Z,14.9
2018-06-20T00:32:31.892Z,14.9
2018-06-20T00:33:22.449Z,14.9
2018-06-20T00:34:12.238Z,14.9
2018-06-20T00:35:02.581Z,14.9
2018-06-20T00:35:52.639Z,14.8
2018-06-20T00:36:42.711Z,14.8
2018-06-20T00:37:32.789Z,14.8
2018-06-20T00:38:22.813Z,14.8
2018-06-20T00:39:12.898Z,14.8
2018-06-20T00:40:02.999Z,14.8
2018-06-20T00:40:52.998Z,14.8
2018-06-20T00:41:43.073Z,14.8
2018-06-20T00:42:33.140Z,14.8
2018-06-20T00:43:23.192Z,14.7
2018-06-20T00:44:13.315Z,14.7
2018-06-20T00:45:03.367Z,14.7
2018-06-20T00:45:53.113Z,14.7
2018-06-20T00:46:43.173Z,14.7
2018-06-20T00:47:33.517Z,14.6
2018-06-20T00:48:23.606Z,14.6
2018-06-20T00:49:13.648Z,14.6
2018-06-20T00:50:03.724Z,14.6
2018-06-20T00:50:53.795Z,14.6
2018-06-20T00:51:43.842Z,14.6
2018-06-20T00:52:33.903Z,14.6
2018-06-20T00:53:23.968Z,14.6
2018-06-20T00:54:14.025Z,14.6
2018-06-20T00:55:03.551Z,14.5
2018-06-20T00:55:54.153Z,14.5
2018-06-20T00:56:44.218Z,14.5
2018-06-20T00:57:34.008Z,14.5
2018-06-20T00:58:24.345Z,14.4
2018-06-20T00:59:14.135Z,14.4
2018-06-20T01:00:04.205Z,14.4
2018-06-20T01:00:54.541Z,14.4
2018-06-20T01:01:44.663Z,14.4
2018-06-20T01:02:34.384Z,14.4
2018-06-20T01:03:24.750Z,14.3
2018-06-20T01:04:14.802Z,14.3
2018-06-20T01:05:04.575Z,14.3
2018-06-20T01:05:54.920Z,14.3
2018-06-20T01:06:44.985Z,14.3
2018-06-20T01:07:35.115Z,14.3
2018-06-20T01:08:25.107Z,14.3
2018-06-20T01:09:15.174Z,14.3
2018-06-20T01:10:04.962Z,14.3
2018-06-20T01:10:55.024Z,14.3
2018-06-20T01:11:45.911Z,14.2
2018-06-20T01:12:35.430Z,14.2
2018-06-20T01:13:25.209Z,14.2
2018-06-20T01:14:15.546Z,14.1
2018-06-20T01:15:05.349Z,14.1
2018-06-20T01:15:55.677Z,14.1
2018-06-20T01:16:45.762Z,14.1
2018-06-20T01:17:35.808Z,14.1
2018-06-20T01:18:25.870Z,14.1
2018-06-20T01:19:15.943Z,14.1
2018-06-20T01:20:05.718Z,14.1
2018-06-20T01:20:56.058Z,14.1
2018-06-20T01:21:46.122Z,14
2018-06-20T01:22:36.183Z,14
2018-06-20T01:23:26.250Z,14
2018-06-20T01:24:16.320Z,14
2018-06-20T01:25:06.381Z,13.9
2018-06-20T01:25:56.448Z,13.9
2018-06-20T01:26:46.528Z,14
2018-06-20T01:27:36.024Z,13.9
2018-06-20T01:28:26.632Z,13.9
2018-06-20T01:29:16.411Z,13.9
2018-06-20T01:30:06.766Z,13.9
2018-06-20T01:30:56.834Z,13.9
2018-06-20T01:31:46.902Z,13.9
2018-06-20T01:32:36.978Z,13.9
2018-06-20T01:33:27.018Z,13.9
2018-06-20T01:34:17.105Z,13.9
2018-06-20T01:35:07.163Z,13.9
2018-06-20T01:35:57.213Z,13.9
2018-06-20T01:36:47.331Z,13.9
2018-06-20T01:37:37.336Z,13.9
2018-06-20T01:38:27.123Z,13.8
2018-06-20T01:39:17.455Z,13.8
2018-06-20T01:40:07.266Z,13.8
2018-06-20T01:40:57.611Z,13.8
2018-06-20T01:41:47.685Z,13.8
2018-06-20T01:42:37.716Z,13.8
2018-06-20T01:43:27.779Z,13.8
2018-06-20T01:44:17.844Z,13.8
2018-06-20T01:45:07.908Z,13.8
2018-06-20T01:45:57.973Z,13.8
2018-06-20T01:46:47.765Z,13.8
2018-06-20T01:47:38.099Z,13.8
2018-06-20T01:48:27.915Z,13.8
2018-06-20T01:49:18.225Z,13.8
2018-06-20T01:50:08.025Z,13.8
2018-06-20T01:50:58.103Z,13.8
2018-06-20T01:51:48.414Z,13.8
2018-06-20T01:52:38.223Z,13.8
2018-06-20T01:53:28.282Z,13.7
2018-06-20T01:54:18.332Z,13.7
2018-06-20T01:55:08.121Z,13.7
2018-06-20T01:55:58.760Z,13.7
2018-06-20T01:56:48.804Z,13.7
2018-06-20T01:57:38.316Z,13.7
2018-06-20T01:58:28.933Z,13.7
2018-06-20T01:59:18.708Z,13.7
2018-06-20T02:00:08.789Z,13.7
2018-06-20T02:00:59.111Z,13.6
2018-06-20T02:01:49.171Z,13.6
2018-06-20T02:02:38.976Z,13.6
2018-06-20T02:03:29.331Z,13.6
2018-06-20T02:04:19.112Z,13.6
2018-06-20T02:05:09.429Z,13.6
2018-06-20T02:05:59.231Z,13.6
2018-06-20T02:06:49.609Z,13.6
2018-06-20T02:07:39.622Z,13.6
2018-06-20T02:08:29.701Z,13.6
2018-06-20T02:09:19.751Z,13.6
2018-06-20T02:10:09.825Z,13.6
2018-06-20T02:10:59.893Z,13.6
2018-06-20T02:11:49.658Z,13.6
2018-06-20T02:12:39.746Z,13.6
2018-06-20T02:13:29.800Z,13.6
2018-06-20T02:14:19.841Z,13.6
2018-06-20T02:15:09.930Z,13.5
2018-06-20T02:16:00.261Z,13.5
2018-06-20T02:16:50.039Z,13.5
2018-06-20T02:17:40.400Z,13.5
2018-06-20T02:18:30.449Z,13.5
2018-06-20T02:19:20.535Z,13.5
2018-06-20T02:20:10.596Z,13.5
2018-06-20T02:21:00.641Z,13.5
2018-06-20T02:21:50.449Z,13.4
2018-06-20T02:22:40.505Z,13.4
2018-06-20T02:23:30.855Z,13.4
2018-06-20T02:24:20.890Z,13.4
2018-06-20T02:25:10.960Z,13.4
2018-06-20T02:26:00.753Z,13.4
2018-06-20T02:26:51.086Z,13.4
2018-06-20T02:27:41.156Z,13.4
2018-06-20T02:28:31.206Z,13.4
2018-06-20T02:29:21.269Z,13.4
2018-06-20T02:30:10.795Z,13.4
2018-06-20T02:31:01.149Z,13.4
2018-06-20T02:31:51.187Z,13.3
2018-06-20T02:32:41.270Z,13.3
2018-06-20T02:33:31.319Z,13.3
2018-06-20T02:34:21.395Z,13.3
2018-06-20T02:35:11.177Z,13.3
2018-06-20T02:36:01.508Z,13.3
2018-06-20T02:36:51.580Z,13.3
2018-06-20T02:37:41.359Z,13.3
2018-06-20T02:38:31.978Z,13.3
2018-06-20T02:39:22.047Z,13.3
2018-06-20T02:40:12.123Z,13.3
2018-06-20T02:41:02.189Z,13.3
2018-06-20T02:41:52.248Z,13.3
2018-06-20T02:42:42.325Z,13.3
2018-06-20T02:43:32.087Z,13.2
2018-06-20T02:44:22.152Z,13.2
2018-06-20T02:45:12.487Z,13.2
2018-06-20T02:46:02.543Z,13.2
2018-06-20T02:46:52.642Z,13.2
2018-06-20T02:47:42.741Z,13.2
2018-06-20T02:48:32.456Z,13.2
2018-06-20T02:49:22.812Z,13.2
2018-06-20T02:50:12.870Z,13.1
2018-06-20T02:51:02.941Z,13.1
2018-06-20T02:51:53.009Z,13.1
2018-06-20T02:52:43.304Z,13.1
2018-06-20T02:53:33.127Z,13.1
2018-06-20T02:54:23.171Z,13.1
2018-06-20T02:55:13.271Z,13.1
2018-06-20T02:56:03.318Z,13.1
2018-06-20T02:56:53.088Z,13.1
2018-06-20T02:57:43.165Z,13.1
2018-06-20T02:58:33.487Z,13.1
2018-06-20T02:59:23.557Z,13
2018-06-20T03:00:13.644Z,13
2018-06-20T03:01:03.710Z,13
2018-06-20T03:01:53.758Z,13
2018-06-20T03:02:43.809Z,13
2018-06-20T03:03:33.895Z,13
2018-06-20T03:04:23.946Z,13
2018-06-20T03:05:13.723Z,12.9
2018-06-20T03:06:04.082Z,12.9
2018-06-20T03:06:54.141Z,12.9
2018-06-20T03:07:44.208Z,12.9
2018-06-20T03:08:34.276Z,12.9
2018-06-20T03:09:24.060Z,12.9
2018-06-20T03:10:14.398Z,12.9
2018-06-20T03:11:04.451Z,12.9
2018-06-20T03:11:53.953Z,12.9
2018-06-20T03:12:44.617Z,12.9
2018-06-20T03:13:34.634Z,12.9
2018-06-20T03:14:24.714Z,12.9
2018-06-20T03:15:14.780Z,12.9
2018-06-20T03:16:04.576Z,12.9
2018-06-20T03:16:54.624Z,12.9
2018-06-20T03:17:44.962Z,12.9
2018-06-20T03:18:34.747Z,12.9
2018-06-20T03:19:25.104Z,12.9
2018-06-20T03:20:15.140Z,12.9
2018-06-20T03:21:05.228Z,12.9
2018-06-20T03:21:55.294Z,12.9
2018-06-20T03:22:45.342Z,12.9
2018-06-20T03:23:35.428Z,12.9
2018-06-20T03:24:25.476Z,12.9
2018-06-20T03:25:15.646Z,12.9
2018-06-20T03:26:05.614Z,12.9
2018-06-20T03:26:55.646Z,12.9
2018-06-20T03:27:45.438Z,12.8
2018-06-20T03:28:35.780Z,12.8
2018-06-20T03:29:25.905Z,12.9
2018-06-20T03:30:15.355Z,12.8
2018-06-20T03:31:05.989Z,12.9
2018-06-20T03:31:56.032Z,12.9
2018-06-20T03:32:46.112Z,12.8
2018-06-20T03:33:36.158Z,12.9
2018-06-20T03:34:25.955Z,12.9
2018-06-20T03:35:16.357Z,12.9
2018-06-20T03:36:06.347Z,12.9
2018-06-20T03:36:56.454Z,12.9
2018-06-20T03:37:46.502Z,12.9
2018-06-20T03:38:36.562Z,12.9
2018-06-20T03:39:26.049Z,12.9
2018-06-20T03:40:16.667Z,12.9
2018-06-20T03:41:06.467Z,12.9
2018-06-20T03:41:56.511Z,12.9
2018-06-20T03:42:46.596Z,12.9
2018-06-20T03:43:36.934Z,12.9
2018-06-20T03:44:26.701Z,12.9
2018-06-20T03:45:16.486Z,12.9
2018-06-20T03:46:06.846Z,12.9
2018-06-20T03:46:56.902Z,12.9
2018-06-20T03:47:47.246Z,12.9
2018-06-20T03:48:36.756Z,12.9
2018-06-20T03:49:27.361Z,12.9
2018-06-20T03:50:17.143Z,13
2018-06-20T03:51:07.512Z,13
2018-06-20T03:51:57.569Z,13
2018-06-20T03:52:47.618Z,13
2018-06-20T03:53:37.415Z,13
2018-06-20T03:54:27.477Z,13
2018-06-20T03:55:17.805Z,13
2018-06-20T03:56:07.908Z,13.1
2018-06-20T03:56:57.951Z,13.1
2018-06-20T03:57:48.003Z,13.1
2018-06-20T03:58:38.050Z,13.1
2018-06-20T03:59:28.120Z,13.1
2018-06-20T04:00:17.628Z,13.1
2018-06-20T04:01:07.965Z,13.1
2018-06-20T04:01:58.315Z,13.1
2018-06-20T04:02:48.110Z,13.1
2018-06-20T04:03:38.459Z,13.1
2018-06-20T04:04:28.503Z,13.2
2018-06-20T04:05:18.577Z,13.2
2018-06-20T04:06:08.702Z,13.2
2018-06-20T04:06:58.690Z,13.2
2018-06-20T04:07:48.759Z,13.2
2018-06-20T04:08:38.272Z,13.3
2018-06-20T04:09:28.898Z,13.3
2018-06-20T04:10:18.715Z,13.3
2018-06-20T04:11:09.017Z,13.3
2018-06-20T04:11:59.069Z,13.3
2018-06-20T04:12:49.584Z,13.3
2018-06-20T04:13:39.216Z,13.4
2018-06-20T04:14:28.995Z,13.4
2018-06-20T04:15:19.060Z,13.4
2018-06-20T04:16:08.826Z,13.4
2018-06-20T04:16:59.193Z,13.4
2018-06-20T04:17:49.519Z,13.5
2018-06-20T04:18:39.311Z,13.5
2018-06-20T04:19:29.643Z,13.6
2018-06-20T04:20:19.728Z,13.6
2018-06-20T04:21:09.778Z,13.6
2018-06-20T04:21:59.852Z,13.6
2018-06-20T04:22:49.965Z,13.7
2018-06-20T04:23:39.972Z,13.7
2018-06-20T04:24:30.033Z,13.7
2018-06-20T04:25:19.819Z,13.8
2018-06-20T04:26:10.149Z,13.8
2018-06-20T04:27:00.204Z,13.8
2018-06-20T04:27:50.294Z,13.9
2018-06-20T04:28:40.345Z,13.9
2018-06-20T04:29:30.408Z,13.9
2018-06-20T04:30:20.188Z,14
2018-06-20T04:31:10.537Z,14
2018-06-20T04:32:00.618Z,14.1
2018-06-20T04:32:50.653Z,14.1
2018-06-20T04:33:40.741Z,14.2
2018-06-20T04:34:30.861Z,14.2
2018-06-20T04:35:20.869Z,14.3
2018-06-20T04:36:10.652Z,14.3
2018-06-20T04:37:00.988Z,14.4
2018-06-20T04:37:51.037Z,14.4
2018-06-20T04:38:41.109Z,14.5
2018-06-20T04:39:31.183Z,14.6
2018-06-20T04:40:21.221Z,14.6
2018-06-20T04:41:11.288Z,14.7
2018-06-20T04:42:00.807Z,14.8
2018-06-20T04:42:51.432Z,14.8
2018-06-20T04:43:41.481Z,14.9
2018-06-20T04:44:31.003Z,15
2018-06-20T04:45:21.660Z,15.1
2018-06-20T04:46:11.411Z,15.2
2018-06-20T04:47:01.456Z,15.3
2018-06-20T04:47:51.515Z,15.3
2018-06-20T04:48:41.878Z,15.5
2018-06-20T04:49:31.950Z,15.6
2018-06-20T04:50:21.449Z,15.7
2018-06-20T04:51:12.081Z,15.8
2018-06-20T04:52:02.138Z,15.9
2018-06-20T04:52:51.642Z,16.1
2018-06-20T04:53:42.254Z,16.2
2018-06-20T04:54:32.325Z,16.3
2018-06-20T04:55:22.376Z,16.4
2018-06-20T04:56:12.462Z,16.6
2018-06-20T04:57:02.516Z,16.7
2018-06-20T04:57:52.579Z,16.8
2018-06-20T04:59:32.703Z,17.1
2018-06-20T05:00:22.803Z,17.3
2018-06-20T05:01:12.843Z,17.4
2018-06-20T05:02:02.895Z,17.6
2018-06-20T05:02:52.683Z,17.8
2018-06-20T05:03:43.044Z,18
2018-06-20T05:04:33.093Z,18.2
2018-06-20T05:05:23.140Z,18.4
2018-06-20T05:06:12.656Z,18.5
2018-06-20T05:07:53.356Z,18.9
2018-06-20T05:08:43.400Z,19.1
2018-06-20T05:09:33.461Z,19.3
2018-06-20T05:10:23.246Z,19.6
2018-06-20T05:11:13.603Z,19.8
2018-06-20T05:12:03.690Z,20
2018-06-20T05:12:53.433Z,20.3
2018-06-20T05:13:43.796Z,20.4
2018-06-20T05:14:33.844Z,20.7
2018-06-20T05:15:23.625Z,20.9
2018-06-20T05:16:13.692Z,21
2018-06-20T05:17:04.046Z,21.2
2018-06-20T05:17:54.105Z,21.3
2018-06-20T05:18:44.180Z,21.5
2018-06-20T05:19:34.234Z,21.7
2018-06-20T05:20:24.023Z,21.9
2018-06-20T05:21:14.375Z,22.1
2018-06-20T05:22:04.431Z,22.3
2018-06-20T05:22:54.211Z,22.6
2018-06-20T05:23:44.566Z,22.9
2018-06-20T05:24:34.329Z,23.2
2018-06-20T05:25:24.399Z,23.4
2018-06-20T05:26:14.769Z,23.7
2018-06-20T05:27:04.833Z,23.9
2018-06-20T05:27:54.870Z,24.1
2018-06-20T05:28:44.937Z,24.3
2018-06-20T05:29:34.995Z,24.5
2018-06-20T05:30:25.062Z,24.8
2018-06-20T05:31:15.173Z,24.9
2018-06-20T05:32:05.183Z,25.2
2018-06-20T05:32:55.546Z,25.4
2018-06-20T05:33:45.315Z,25.8
2018-06-20T05:34:35.372Z,26.1
2018-06-20T05:35:25.444Z,26.4
2018-06-20T05:36:15.514Z,26.8
2018-06-20T05:37:05.281Z,27.2
2018-06-20T05:37:55.347Z,27.5
2018-06-20T05:38:45.696Z,27.3
2018-06-20T05:39:35.773Z,20.1
2018-06-20T05:40:25.823Z,24.6
2018-06-20T05:41:15.886Z,31.3
2018-06-20T05:42:05.967Z,31.7
2018-06-20T05:42:56.027Z,32.2
2018-06-20T05:43:45.797Z,32.3
2018-06-20T05:44:36.156Z,32.4
2018-06-20T05:45:26.207Z,32.3
2018-06-20T05:46:15.991Z,32.2
2018-06-20T05:47:06.354Z,32.1
2018-06-20T05:47:56.124Z,32
2018-06-20T05:48:46.232Z,31.9
2018-06-20T05:49:36.526Z,31.9
2018-06-20T05:50:26.589Z,31.9
2018-06-20T05:51:16.671Z,31.8
2018-06-20T05:52:06.715Z,31.8
2018-06-20T05:52:56.500Z,31.8
2018-06-20T05:53:46.672Z,31.8
2018-06-20T05:54:36.908Z,31.8
2018-06-20T05:55:26.986Z,31.8
2018-06-20T05:56:17.031Z,31.7
2018-06-20T05:57:07.117Z,31.7
2018-06-20T05:57:57.172Z,31.7
2018-06-20T05:58:47.030Z,31.7
2018-06-20T05:59:36.724Z,31.7
2018-06-20T06:00:27.350Z,31.7
2018-06-20T06:01:17.416Z,31.8
2018-06-20T06:02:07.205Z,32.1
2018-06-20T06:02:57.532Z,32.2
2018-06-20T06:03:47.336Z,34
2018-06-20T06:04:37.672Z,34.1
2018-06-20T06:05:27.727Z,35.5
2018-06-20T06:06:17.802Z,36.1
2018-06-20T06:07:07.875Z,36
2018-06-20T06:07:57.925Z,35.8
2018-06-20T06:08:47.722Z,35.6
2018-06-20T06:09:37.501Z,35.5
2018-06-20T06:11:17.191Z,35.7
2018-06-20T06:12:07.362Z,35.9
2018-06-20T06:12:57.581Z,35.9
2018-06-20T06:13:47.602Z,36.1
2018-06-20T06:14:37.688Z,36.2
2018-06-20T06:15:27.472Z,36.4
2018-06-20T06:16:17.814Z,36.6
2018-06-20T06:17:08.035Z,36.7
2018-06-20T06:17:57.937Z,36.7
2018-06-20T06:18:47.993Z,36.7
2018-06-20T06:19:38.042Z,36.8
2018-06-20T06:20:28.113Z,37
2018-06-20T06:21:18.181Z,37.3
2018-06-20T06:22:08.233Z,37.3
2018-06-20T06:22:58.025Z,37.3
2018-06-20T06:23:48.107Z,37.2
2018-06-20T06:24:38.429Z,37.2
2018-06-20T06:25:28.529Z,37.3
2018-06-20T06:26:18.566Z,37.4
2018-06-20T06:27:08.617Z,37.5
2018-06-20T06:27:58.409Z,37.6
2018-06-20T06:28:48.744Z,37.7
2018-06-20T06:29:38.808Z,37.8
2018-06-20T06:30:28.689Z,37.8
2018-06-20T06:31:18.940Z,37.8
2018-06-20T06:32:08.996Z,37.8
2018-06-20T06:32:59.073Z,37.9
2018-06-20T06:33:49.138Z,37.9
2018-06-20T06:34:39.198Z,38.1
2018-06-20T06:35:28.996Z,38.1
2018-06-20T06:36:19.330Z,38.1
2018-06-20T06:37:09.387Z,38.1
2018-06-20T06:37:59.192Z,38
2018-06-20T06:38:49.520Z,38
2018-06-20T06:39:39.591Z,38
2018-06-20T06:40:29.653Z,38
2018-06-20T06:41:19.710Z,38
2018-06-20T06:42:09.503Z,38.1
2018-06-20T06:42:59.830Z,38.1
2018-06-20T06:43:49.633Z,38.1
2018-06-20T06:44:39.971Z,38.3
2018-06-20T06:45:30.020Z,38.4
2018-06-20T06:46:20.089Z,38.4
2018-06-20T06:47:09.897Z,38.5
2018-06-20T06:48:00.267Z,38.6
2018-06-20T06:48:50.297Z,38.7
2018-06-20T06:49:40.823Z,38.7
2018-06-20T06:50:30.123Z,38.8
2018-06-20T06:51:20.475Z,38.9
2018-06-20T06:52:10.553Z,39
2018-06-20T06:53:00.598Z,39
2018-06-20T06:53:50.662Z,39.1
2018-06-20T06:54:40.469Z,39.4
2018-06-20T06:55:30.795Z,39.8
2018-06-20T06:56:20.576Z,40.1
2018-06-20T06:57:10.919Z,40.3
2018-06-20T06:58:01.017Z,40.4
2018-06-20T06:58:51.069Z,40.5
2018-06-20T06:59:40.829Z,40.6
2018-06-20T07:00:31.196Z,40.8
2018-06-20T07:01:21.259Z,40.8
2018-06-20T07:02:11.324Z,40.8
2018-06-20T07:03:01.131Z,40.8
2018-06-20T07:03:51.487Z,40.9
2018-06-20T07:04:41.247Z,41.3
2018-06-20T07:05:31.283Z,41.4
2018-06-20T07:06:21.347Z,41.6
2018-06-20T07:07:11.692Z,41.7
2018-06-20T07:08:01.469Z,41.8
2018-06-20T07:08:51.540Z,41.9
2018-06-20T07:09:41.893Z,42.1
2018-06-20T07:10:31.952Z,42.3
2018-06-20T07:11:21.757Z,42.4
2018-06-20T07:12:12.093Z,42.6
2018-06-20T07:13:02.134Z,42.7
2018-06-20T07:13:51.643Z,42.9
2018-06-20T07:14:42.288Z,42.9
2018-06-20T07:15:32.746Z,43.1
2018-06-20T07:16:22.427Z,43.2
2018-06-20T07:17:12.199Z,43.3
2018-06-20T07:18:02.252Z,43.4
2018-06-20T07:18:52.577Z,43.6
2018-06-20T07:19:42.386Z,43.8
2018-06-20T07:20:32.459Z,43.8
2018-06-20T07:21:22.789Z,44
2018-06-20T07:22:12.856Z,44.1
2018-06-20T07:23:02.646Z,44.3
2018-06-20T07:23:52.706Z,44.4
2018-06-20T07:24:42.758Z,44.5
2018-06-20T07:25:33.106Z,44.7
2018-06-20T07:26:22.891Z,44.8
2018-06-20T07:27:13.248Z,44.9
2018-06-20T07:28:03.009Z,45.1
2018-06-20T07:28:53.117Z,45.2
2018-06-20T07:29:43.471Z,45.3
2018-06-20T07:30:33.205Z,45.4
2018-06-20T07:31:23.287Z,45.6
2018-06-20T07:32:13.638Z,45.8
2018-06-20T07:33:03.691Z,45.9
2018-06-20T07:33:53.757Z,46
2018-06-20T07:34:43.254Z,46.1
2018-06-20T07:35:34.376Z,46.3
2018-06-20T07:36:23.821Z,46.4
2018-06-20T07:37:14.024Z,46.6
2018-06-20T07:38:04.079Z,46.8
2018-06-20T07:38:54.136Z,46.9
2018-06-20T07:39:44.196Z,46.9
2018-06-20T07:40:34.037Z,47.1
2018-06-20T07:41:24.325Z,47.3
2018-06-20T07:42:14.393Z,47.4
2018-06-20T07:43:04.461Z,47.5
2018-06-20T07:43:54.241Z,47.6
2018-06-20T07:44:44.621Z,47.8
2018-06-20T07:45:34.673Z,47.9
2018-06-20T07:46:24.709Z,48.1
2018-06-20T07:47:14.783Z,48.2
2018-06-20T07:48:04.569Z,48.3
2018-06-20T07:48:54.897Z,48.4
2018-06-20T07:49:44.968Z,48.6
2018-06-20T07:50:35.042Z,48.7
2018-06-20T07:51:25.092Z,48.9
2018-06-20T07:52:15.176Z,49
2018-06-20T07:53:05.243Z,49.1
2018-06-20T07:53:55.293Z,49.3
2018-06-20T07:54:45.354Z,49.4
2018-06-20T07:55:35.451Z,49.6
2018-06-20T07:56:25.219Z,49.7
2018-06-20T07:57:15.573Z,49.8
2018-06-20T07:58:05.621Z,50
2018-06-20T07:58:55.399Z,50.1
2018-06-20T07:59:45.739Z,50.3
2018-06-20T08:00:35.906Z,50.4
2018-06-20T08:01:25.635Z,50.5
2018-06-20T08:02:15.929Z,50.6
2018-06-20T08:03:06.025Z,50.8
2018-06-20T08:03:56.059Z,50.9
2018-06-20T08:04:46.126Z,51
2018-06-20T08:05:36.201Z,51.1
2018-06-20T08:06:26.800Z,51.3
2018-06-20T08:07:16.054Z,51.4
2018-06-20T08:08:06.388Z,51.5
2018-06-20T08:08:56.458Z,51.6
2018-06-20T08:09:46.542Z,51.8
2018-06-20T08:10:36.297Z,51.8
2018-06-20T08:12:16.724Z,52.1
2018-06-20T08:13:06.781Z,52.2
2018-06-20T08:13:56.831Z,52.3
2018-06-20T08:15:36.969Z,52.5
2018-06-20T08:16:27.029Z,52.6
2018-06-20T08:17:16.877Z,52.8
2018-06-20T08:18:06.875Z,52.8
2018-06-20T08:18:56.745Z,52.9
2018-06-20T08:19:47.286Z,53.1
2018-06-20T08:20:37.345Z,53.1
2018-06-20T08:21:27.149Z,53.3
2018-06-20T08:22:17.476Z,53.3
2018-06-20T08:23:07.537Z,53.3
2018-06-20T08:23:57.620Z,53.4
2018-06-20T08:24:47.389Z,53.6
2018-06-20T08:25:37.825Z,53.7
2018-06-20T08:26:27.801Z,53.8
2018-06-20T08:27:17.862Z,53.8
2018-06-20T08:28:07.661Z,53.9
2018-06-20T08:28:58.009Z,54.1
2018-06-20T08:29:48.053Z,54.1
2018-06-20T08:30:38.115Z,54.2
2018-06-20T08:31:27.921Z,54.3
2018-06-20T08:32:18.280Z,54.4
2018-06-20T08:33:08.305Z,54.4
2018-06-20T08:33:58.387Z,54.5
2018-06-20T08:34:48.173Z,54.5
2018-06-20T08:35:38.506Z,54.6
2018-06-20T08:36:28.603Z,54.7
2018-06-20T08:37:18.358Z,54.8
2018-06-20T08:38:08.723Z,54.8
2018-06-20T08:38:58.765Z,54.9
2018-06-20T08:39:48.837Z,55
2018-06-20T08:40:38.900Z,55.1
2018-06-20T08:41:28.974Z,55.2
2018-06-20T08:42:19.197Z,55.3
2018-06-20T08:43:09.107Z,55.4
2018-06-20T08:43:59.164Z,55.4
2018-06-20T08:44:49.229Z,55.5
2018-06-20T08:45:39.283Z,55.6
2018-06-20T08:46:29.345Z,55.6
2018-06-20T08:47:19.415Z,55.7
2018-06-20T08:48:09.204Z,55.8
2018-06-20T08:48:59.562Z,55.9
2018-06-20T08:49:49.650Z,55.9
2018-06-20T08:50:39.665Z,56.1
2018-06-20T08:51:29.743Z,56.1
2018-06-20T08:52:19.825Z,56.2
2018-06-20T08:53:10.232Z,56.3
2018-06-20T08:53:59.929Z,56.4
2018-06-20T08:54:49.998Z,56.4
2018-06-20T08:55:40.070Z,56.4
2018-06-20T08:56:30.132Z,56.5
2018-06-20T08:57:20.219Z,56.6
2018-06-20T08:58:09.709Z,56.7
2018-06-20T08:59:00.040Z,56.8
2018-06-20T08:59:50.398Z,56.8
2018-06-20T09:00:40.443Z,56.9
2018-06-20T09:01:30.512Z,57
2018-06-20T09:02:20.602Z,57.1
2018-06-20T09:03:10.638Z,57.2
2018-06-20T09:04:00.703Z,57.3
2018-06-20T09:04:50.769Z,57.2
2018-06-20T09:05:40.553Z,57.3
2018-06-20T09:06:30.918Z,57.3
2018-06-20T09:07:20.706Z,57.4
2018-06-20T09:08:11.034Z,57.5
2018-06-20T09:09:01.142Z,57.6
2018-06-20T09:09:51.170Z,57.6
2018-06-20T09:10:40.940Z,57.7
2018-06-20T09:11:31.291Z,57.8
2018-06-20T09:12:21.077Z,57.9
2018-06-20T09:13:11.428Z,58
2018-06-20T09:14:01.205Z,58.1
2018-06-20T09:14:51.552Z,58.1
2018-06-20T09:15:41.347Z,58.1
2018-06-20T09:16:31.411Z,57.9
2018-06-20T09:17:21.474Z,57.6
2018-06-20T09:18:11.257Z,57.6
2018-06-20T09:19:01.621Z,57.6
2018-06-20T09:20:42.001Z,58
2018-06-20T09:21:32.081Z,58.3
2018-06-20T09:22:21.861Z,58.4
2018-06-20T09:23:12.218Z,58.5
2018-06-20T09:24:52.322Z,58.6
2018-06-20T09:25:42.104Z,58.7
2018-06-20T09:26:32.507Z,58.8
2018-06-20T09:28:12.363Z,58.4
2018-06-20T09:29:02.671Z,58.4
2018-06-20T09:29:52.730Z,58.4
2018-06-20T09:30:42.509Z,58.4
2018-06-20T09:31:32.847Z,58.4
2018-06-20T09:33:12.972Z,58.8
2018-06-20T09:34:03.051Z,58.9
2018-06-20T09:34:53.100Z,59.1
2018-06-20T09:35:42.907Z,59.1
2018-06-20T09:36:33.230Z,59.3
2018-06-20T09:37:23.305Z,59.4
2018-06-20T09:38:13.365Z,59.4
2018-06-20T09:39:03.159Z,59.6
2018-06-20T09:39:53.503Z,59.6
2018-06-20T09:40:43.576Z,59.8
2018-06-20T09:41:33.651Z,59.9
2018-06-20T09:42:23.702Z,60
2018-06-20T09:43:13.746Z,60.1
2018-06-20T09:44:03.833Z,60.2
2018-06-20T09:44:53.882Z,60.3
2018-06-20T09:45:43.668Z,60.4
2018-06-20T09:46:33.742Z,60.4
2018-06-20T09:47:23.858Z,60.6
2018-06-20T09:48:14.159Z,60.6
2018-06-20T09:49:04.215Z,60.7
2018-06-20T09:49:54.287Z,60.8
2018-06-20T09:50:44.051Z,60.9
2018-06-20T09:51:34.111Z,60.9
2018-06-20T09:52:24.459Z,61.1
2018-06-20T09:53:14.522Z,61.1
2018-06-20T09:54:04.588Z,61.1
2018-06-20T09:54:54.675Z,60.7
2018-06-20T09:55:44.726Z,60.3
2018-06-20T09:56:34.812Z,60
2018-06-20T09:57:24.865Z,59.8
2018-06-20T09:58:14.650Z,59.8
2018-06-20T09:59:05.006Z,59.7
2018-06-20T09:59:55.055Z,59.6
2018-06-20T10:00:45.126Z,59.6
2018-06-20T10:01:35.595Z,59.6
2018-06-20T10:02:25.274Z,59.9
2018-06-20T10:03:15.297Z,60.3
2018-06-20T10:04:05.101Z,60.5
2018-06-20T10:04:55.451Z,60.4
2018-06-20T10:05:45.524Z,60.6
2018-06-20T10:06:35.603Z,60.7
2018-06-20T10:07:25.353Z,60.6
2018-06-20T10:08:15.482Z,60.4
2018-06-20T10:09:05.772Z,60.5
2018-06-20T10:09:55.552Z,60.9
2018-06-20T10:10:45.617Z,61.1
2018-06-20T10:11:35.693Z,61.3
2018-06-20T10:12:25.731Z,61.2
2018-06-20T10:13:16.025Z,60.9
2018-06-20T10:14:06.172Z,61
2018-06-20T10:14:56.212Z,61.3
2018-06-20T10:15:46.304Z,61.6
2018-06-20T10:16:36.395Z,61.7
2018-06-20T10:17:26.425Z,61.8
2018-06-20T10:18:15.909Z,61.9
2018-06-20T10:19:06.552Z,61.9
2018-06-20T10:19:56.311Z,62
2018-06-20T10:20:46.682Z,62.1
2018-06-20T10:21:36.452Z,62.2
2018-06-20T10:22:26.796Z,62.1
2018-06-20T10:23:16.574Z,61.8
2018-06-20T10:24:06.946Z,61.9
2018-06-20T10:24:56.716Z,62.1
2018-06-20T10:25:46.783Z,62.3
2018-06-20T10:26:36.556Z,62.3
2018-06-20T10:27:26.933Z,62.4
2018-06-20T10:28:16.971Z,62.5
2018-06-20T10:29:07.347Z,62.5
2018-06-20T10:29:57.123Z,62.6
2018-06-20T10:30:47.167Z,62.7
2018-06-20T10:31:37.513Z,62.8
2018-06-20T10:32:27.589Z,62.8
2018-06-20T10:33:17.679Z,62.9
2018-06-20T10:34:07.937Z,62.9
2018-06-20T10:34:57.793Z,63.1
2018-06-20T10:35:47.840Z,63.1
2018-06-20T10:36:37.903Z,63.1
2018-06-20T10:37:27.688Z,63
2018-06-20T10:38:18.015Z,63
2018-06-20T10:39:08.093Z,62.9
2018-06-20T10:39:58.010Z,63
2018-06-20T10:40:48.225Z,63.1
2018-06-20T10:41:38.295Z,63.3
2018-06-20T10:42:28.376Z,63.4
2018-06-20T10:43:18.426Z,63.4
2018-06-20T10:44:08.202Z,63.4
2018-06-20T10:44:58.573Z,63.5
2018-06-20T10:45:48.636Z,63.6
2018-06-20T10:46:38.398Z,63.6
2018-06-20T10:47:28.745Z,63.6
2018-06-20T10:48:18.523Z,63.7
2018-06-20T10:49:08.610Z,63.8
2018-06-20T10:49:58.954Z,63.8
2018-06-20T10:50:48.992Z,63.9
2018-06-20T10:51:39.062Z,64
2018-06-20T10:52:29.110Z,64.1
2018-06-20T10:53:18.630Z,64.1
2018-06-20T10:54:09.262Z,64.1
2018-06-20T10:54:59.305Z,64.1
2018-06-20T10:55:49.396Z,64
2018-06-20T10:56:39.457Z,63.9
2018-06-20T10:57:29.514Z,63.8
2018-06-20T10:58:19.619Z,63.9
2018-06-20T10:59:09.649Z,64.1
2018-06-20T10:59:59.417Z,63.9
2018-06-20T11:00:49.761Z,63.6
2018-06-20T11:01:39.282Z,63.4
2018-06-20T11:02:29.898Z,63.2
2018-06-20T11:03:19.685Z,63.3
2018-06-20T11:04:10.025Z,63.7
2018-06-20T11:04:59.811Z,64.1
2018-06-20T11:05:50.161Z,64.2
2018-06-20T11:06:40.244Z,64.2
2018-06-20T11:07:30.278Z,64.2
2018-06-20T11:08:20.353Z,64.2
2018-06-20T11:09:10.416Z,64.3
2018-06-20T11:10:00.186Z,64.4
2018-06-20T11:10:50.535Z,64.6
2018-06-20T11:11:40.640Z,64.6
2018-06-20T11:12:30.658Z,64.6
2018-06-20T11:13:20.445Z,64.7
2018-06-20T11:14:10.803Z,64.8
2018-06-20T11:15:00.597Z,64.8
2018-06-20T11:15:50.654Z,64.9
2018-06-20T11:16:41.016Z,64.9
2018-06-20T11:17:31.097Z,64.9